createdAt,value
2022-11-12T00:00:00.115Z,13.86
2022-11-12T00:01:00.191Z,13.91
2022-11-12T00:02:00.344Z,13.86
2022-11-12T00:03:00.347Z,14.13
2022-11-12T00:04:00.420Z,13.96
2022-11-12T00:05:00.508Z,13.91
2022-11-12T00:06:00.705Z,13.91
2022-11-12T00:07:00.721Z,13.96
2022-11-12T00:08:00.775Z,13.91
2022-11-12T00:09:06.836Z,14.07
2022-11-12T00:10:00.939Z,13.86
2022-11-12T00:11:01.039Z,13.86
2022-11-12T00:12:01.146Z,13.91
2022-11-12T00:13:01.229Z,13.91
2022-11-12T00:14:01.295Z,13.96
2022-11-12T00:15:01.391Z,13.86
2022-11-12T00:16:01.471Z,13.91
2022-11-12T00:17:01.679Z,14.07
2022-11-12T00:18:01.675Z,13.91
2022-11-12T00:19:01.720Z,13.86
2022-11-12T00:20:01.804Z,13.86
2022-11-12T00:21:01.866Z,13.91
2022-11-12T00:22:01.973Z,13.91
2022-11-12T00:23:02.076Z,13.86
2022-11-12T00:24:02.155Z,13.91
2022-11-12T00:25:02.258Z,13.91
2022-11-12T00:26:02.352Z,13.86
2022-11-12T00:27:02.458Z,13.96
2022-11-12T00:28:02.522Z,13.96
2022-11-12T00:29:02.575Z,13.96
2022-11-12T00:30:02.667Z,13.91
2022-11-12T00:31:02.761Z,13.86
2022-11-12T00:32:02.843Z,13.86
2022-11-12T00:33:02.944Z,13.91
2022-11-12T00:34:03.134Z,13.86
2022-11-12T00:35:03.107Z,13.91
2022-11-12T00:36:03.200Z,13.54
2022-11-12T00:37:03.266Z,13.91
2022-11-12T00:38:04.294Z,13.91
2022-11-12T00:39:03.443Z,14.18
2022-11-12T00:40:09.827Z,13.96
2022-11-12T00:41:03.601Z,13.91
2022-11-12T00:42:03.690Z,13.91
2022-11-12T00:43:03.792Z,13.91
2022-11-12T00:44:03.891Z,13.86
2022-11-12T00:45:03.964Z,13.86
2022-11-12T00:46:04.078Z,13.91
2022-11-12T00:47:04.122Z,13.91
2022-11-12T00:48:04.219Z,13.91
2022-11-12T00:49:04.283Z,13.91
2022-11-12T00:50:04.340Z,13.86
2022-11-12T00:51:04.435Z,13.96
2022-11-12T00:52:04.532Z,13.91
2022-11-12T00:53:04.608Z,13.86
2022-11-12T00:54:04.702Z,13.91
2022-11-12T00:55:04.799Z,13.91
2022-11-12T00:56:04.894Z,14.02
2022-11-12T00:57:05.046Z,13.86
2022-11-12T00:58:05.196Z,13.91
2022-11-12T00:59:05.178Z,13.91
2022-11-12T01:00:05.274Z,13.86
2022-11-12T01:01:05.408Z,13.91
2022-11-12T01:02:05.455Z,13.91
2022-11-12T01:03:05.615Z,13.96
2022-11-12T01:04:05.629Z,13.96
2022-11-12T01:05:05.666Z,13.91
2022-11-12T01:06:05.721Z,13.91
2022-11-12T01:07:05.855Z,13.86
2022-11-12T01:08:05.888Z,13.86
2022-11-12T01:09:06.013Z,13.91
2022-11-12T01:10:06.059Z,13.86
2022-11-12T01:11:12.113Z,13.86
2022-11-12T01:12:06.245Z,13.86
2022-11-12T01:13:06.340Z,13.91
2022-11-12T01:14:06.409Z,13.91
2022-11-12T01:15:06.601Z,13.86
2022-11-12T01:16:06.576Z,14.13
2022-11-12T01:17:06.671Z,13.96
2022-11-12T01:18:06.729Z,13.91
2022-11-12T01:19:06.781Z,13.91
2022-11-12T01:20:06.876Z,13.86
2022-11-12T01:21:06.972Z,13.91
2022-11-12T01:22:07.031Z,13.86
2022-11-12T01:23:07.131Z,13.80
2022-11-12T01:24:07.189Z,13.86
2022-11-12T01:25:07.266Z,13.91
2022-11-12T01:26:07.347Z,13.91
2022-11-12T01:27:07.419Z,13.86
2022-11-12T01:28:07.509Z,13.48
2022-11-12T01:29:07.565Z,13.91
2022-11-12T01:30:07.645Z,13.59
2022-11-12T01:31:07.747Z,13.91
2022-11-12T01:32:07.923Z,13.91
2022-11-12T01:33:07.886Z,13.91
2022-11-12T01:34:07.986Z,13.86
2022-11-12T01:35:08.083Z,13.86
2022-11-12T01:36:08.131Z,13.91
2022-11-12T01:37:08.204Z,13.86
2022-11-12T01:38:08.401Z,13.86
2022-11-12T01:39:08.401Z,13.91
2022-11-12T01:40:08.497Z,13.86
2022-11-12T01:41:08.597Z,13.91
2022-11-12T01:42:14.657Z,13.86
2022-11-12T01:43:08.871Z,13.86
2022-11-12T01:44:08.850Z,14.02
2022-11-12T01:45:08.946Z,13.91
2022-11-12T01:46:09.056Z,13.86
2022-11-12T01:47:09.148Z,13.86
2022-11-12T01:48:09.241Z,13.96
2022-11-12T01:49:09.361Z,13.48
2022-11-12T01:50:09.426Z,13.48
2022-11-12T01:51:09.482Z,13.86
2022-11-12T01:52:09.580Z,13.86
2022-11-12T01:53:09.672Z,13.48
2022-11-12T01:54:10.249Z,13.91
2022-11-12T01:55:09.809Z,13.48
2022-11-12T01:56:09.860Z,13.91
2022-11-12T01:57:09.966Z,13.96
2022-11-12T01:58:10.030Z,13.86
2022-11-12T01:59:10.114Z,13.86
2022-11-12T02:00:10.317Z,13.86
2022-11-12T02:01:10.359Z,13.86
2022-11-12T02:02:10.366Z,13.48
2022-11-12T02:03:10.459Z,13.91
2022-11-12T02:04:10.517Z,13.48
2022-11-12T02:05:10.732Z,13.91
2022-11-12T02:06:10.701Z,13.86
2022-11-12T02:07:10.836Z,13.91
2022-11-12T02:08:10.863Z,13.54
2022-11-12T02:09:10.926Z,13.91
2022-11-12T02:10:11.027Z,13.86
2022-11-12T02:11:11.129Z,13.54
2022-11-12T02:12:11.190Z,13.91
2022-11-12T02:13:17.249Z,13.91
2022-11-12T02:14:11.360Z,13.48
2022-11-12T02:15:11.450Z,13.48
2022-11-12T02:16:11.559Z,13.86
2022-11-12T02:17:11.616Z,13.91
2022-11-12T02:18:11.693Z,13.91
2022-11-12T02:19:11.751Z,13.86
2022-11-12T02:20:11.848Z,13.91
2022-11-12T02:21:11.947Z,13.59
2022-11-12T02:22:12.165Z,13.91
2022-11-12T02:23:12.135Z,13.48
2022-11-12T02:24:12.230Z,13.91
2022-11-12T02:25:12.320Z,13.59
2022-11-12T02:26:12.421Z,13.48
2022-11-12T02:27:12.578Z,13.54
2022-11-12T02:28:12.575Z,13.96
2022-11-12T02:29:12.658Z,13.48
2022-11-12T02:30:12.759Z,13.48
2022-11-12T02:31:12.856Z,13.48
2022-11-12T02:32:12.953Z,13.54
2022-11-12T02:33:13.162Z,13.91
2022-11-12T02:34:13.161Z,13.91
2022-11-12T02:35:13.203Z,13.91
2022-11-12T02:36:13.262Z,13.91
2022-11-12T02:37:13.355Z,13.91
2022-11-12T02:38:13.527Z,13.91
2022-11-12T02:39:13.469Z,13.91
2022-11-12T02:40:13.555Z,13.91
2022-11-12T02:41:13.647Z,13.48
2022-11-12T02:42:13.736Z,13.48
2022-11-12T02:43:13.827Z,13.91
2022-11-12T02:44:19.898Z,13.54
2022-11-12T02:45:14.011Z,13.54
2022-11-12T02:46:14.110Z,13.86
2022-11-12T02:47:14.170Z,13.48
2022-11-12T02:48:19.019Z,13.48
2022-11-12T02:49:14.345Z,13.91
2022-11-12T02:50:14.448Z,13.86
2022-11-12T02:51:14.530Z,13.54
2022-11-12T02:52:14.591Z,13.54
2022-11-12T02:53:14.669Z,13.54
2022-11-12T02:54:14.777Z,13.91
2022-11-12T02:55:14.833Z,13.86
2022-11-12T02:56:14.933Z,13.54
2022-11-12T02:57:14.992Z,13.48
2022-11-12T02:58:15.093Z,13.86
2022-11-12T02:59:15.174Z,13.91
2022-11-12T03:00:15.269Z,13.91
2022-11-12T03:01:15.382Z,13.48
2022-11-12T03:02:15.456Z,13.48
2022-11-12T03:03:15.538Z,13.96
2022-11-12T03:04:15.640Z,13.48
2022-11-12T03:05:15.733Z,13.54
2022-11-12T03:06:15.831Z,13.48
2022-11-12T03:07:15.942Z,13.48
2022-11-12T03:08:16.074Z,13.86
2022-11-12T03:09:16.055Z,13.48
2022-11-12T03:10:16.157Z,13.43
2022-11-12T03:11:16.214Z,13.48
2022-11-12T03:12:16.306Z,13.86
2022-11-12T03:13:16.388Z,13.91
2022-11-12T03:14:16.590Z,13.48
2022-11-12T03:15:22.553Z,13.48
2022-11-12T03:16:16.662Z,13.86
2022-11-12T03:17:16.742Z,13.48
2022-11-12T03:18:16.802Z,13.86
2022-11-12T03:19:16.881Z,13.54
2022-11-12T03:20:16.967Z,13.91
2022-11-12T03:21:17.016Z,13.48
2022-11-12T03:22:17.111Z,13.48
2022-11-12T03:23:17.174Z,13.59
2022-11-12T03:24:17.253Z,13.48
2022-11-12T03:25:17.347Z,13.48
2022-11-12T03:26:17.421Z,13.48
2022-11-12T03:27:17.493Z,13.48
2022-11-12T03:28:17.577Z,13.64
2022-11-12T03:29:17.687Z,13.54
2022-11-12T03:30:17.705Z,13.54
2022-11-12T03:31:17.896Z,13.48
2022-11-12T03:32:17.891Z,13.86
2022-11-12T03:33:17.990Z,13.48
2022-11-12T03:34:18.077Z,13.48
2022-11-12T03:35:18.152Z,13.48
2022-11-12T03:36:18.243Z,13.91
2022-11-12T03:37:18.456Z,13.48
2022-11-12T03:38:18.446Z,13.91
2022-11-12T03:39:18.527Z,13.48
2022-11-12T03:40:18.609Z,13.54
2022-11-12T03:41:18.706Z,13.48
2022-11-12T03:42:18.807Z,13.48
2022-11-12T03:43:19.004Z,13.48
2022-11-12T03:44:18.980Z,13.86
2022-11-12T03:45:19.046Z,13.54
2022-11-12T03:46:25.110Z,13.54
2022-11-12T03:47:19.220Z,13.48
2022-11-12T03:48:19.308Z,13.54
2022-11-12T03:49:19.505Z,13.48
2022-11-12T03:50:19.492Z,13.48
2022-11-12T03:51:19.550Z,13.54
2022-11-12T03:52:19.642Z,13.91
2022-11-12T03:53:19.743Z,13.86
2022-11-12T03:54:19.839Z,13.91
2022-11-12T03:55:19.966Z,13.54
2022-11-12T03:56:20.019Z,13.54
2022-11-12T03:57:20.084Z,13.48
2022-11-12T03:58:20.180Z,13.48
2022-11-12T03:59:20.263Z,13.91
2022-11-12T04:00:20.368Z,13.48
2022-11-12T04:01:20.494Z,13.59
2022-11-12T04:02:20.519Z,13.86
2022-11-12T04:03:20.622Z,13.48
2022-11-12T04:04:20.681Z,13.54
2022-11-12T04:05:20.777Z,13.54
2022-11-12T04:06:20.868Z,13.48
2022-11-12T04:07:20.953Z,13.48
2022-11-12T04:08:21.048Z,13.91
2022-11-12T04:09:21.115Z,13.48
2022-11-12T04:10:21.210Z,13.54
2022-11-12T04:11:21.280Z,13.54
2022-11-12T04:12:21.348Z,13.48
2022-11-12T04:13:21.422Z,13.48
2022-11-12T04:14:21.524Z,13.54
2022-11-12T04:15:21.616Z,13.54
2022-11-12T04:16:21.683Z,13.48
2022-11-12T04:17:28.047Z,13.48
2022-11-12T04:18:21.839Z,13.48
2022-11-12T04:19:21.902Z,13.48
2022-11-12T04:20:22.000Z,13.54
2022-11-12T04:21:22.077Z,13.54
2022-11-12T04:22:22.156Z,13.48
2022-11-12T04:23:22.372Z,13.48
2022-11-12T04:24:22.349Z,13.48
2022-11-12T04:25:22.414Z,13.48
2022-11-12T04:26:22.506Z,13.86
2022-11-12T04:27:22.606Z,13.91
2022-11-12T04:28:23.041Z,13.48
2022-11-12T04:29:22.809Z,13.54
2022-11-12T04:30:22.900Z,13.54
2022-11-12T04:31:22.991Z,13.59
2022-11-12T04:32:23.078Z,13.86
2022-11-12T04:33:23.139Z,13.48
2022-11-12T04:34:23.391Z,13.48
2022-11-12T04:35:23.319Z,13.54
2022-11-12T04:36:23.383Z,13.54
2022-11-12T04:37:23.817Z,13.54
2022-11-12T04:38:23.843Z,13.91
2022-11-12T04:39:23.694Z,13.48
2022-11-12T04:40:24.340Z,13.48
2022-11-12T04:41:23.778Z,13.91
2022-11-12T04:42:23.874Z,13.54
2022-11-12T04:43:23.972Z,13.48
2022-11-12T04:44:24.077Z,13.54
2022-11-12T04:45:24.146Z,13.64
2022-11-12T04:46:24.227Z,13.43
2022-11-12T04:47:24.324Z,13.54
2022-11-12T04:48:30.826Z,13.43
2022-11-12T04:49:24.482Z,13.48
2022-11-12T04:50:24.581Z,13.86
2022-11-12T04:51:24.620Z,13.54
2022-11-12T04:52:24.720Z,13.48
2022-11-12T04:53:24.823Z,13.48
2022-11-12T04:54:24.894Z,13.54
2022-11-12T04:55:24.976Z,13.54
2022-11-12T04:56:25.149Z,13.54
2022-11-12T04:57:25.144Z,13.54
2022-11-12T04:58:25.783Z,13.48
2022-11-12T04:59:25.288Z,13.54
2022-11-12T05:00:25.382Z,13.43
2022-11-12T05:01:25.624Z,13.48
2022-11-12T05:02:25.591Z,13.86
2022-11-12T05:03:25.644Z,13.86
2022-11-12T05:04:25.735Z,13.54
2022-11-12T05:05:28.523Z,13.54
2022-11-12T05:06:25.896Z,13.48
2022-11-12T05:07:26.080Z,13.59
2022-11-12T05:08:26.520Z,13.54
2022-11-12T05:09:26.175Z,13.54
2022-11-12T05:10:26.265Z,13.48
2022-11-12T05:11:26.313Z,13.43
2022-11-12T05:12:26.417Z,13.91
2022-11-12T05:13:26.494Z,13.48
2022-11-12T05:14:26.551Z,13.54
2022-11-12T05:15:26.647Z,13.48
2022-11-12T05:16:26.724Z,13.86
2022-11-12T05:17:26.827Z,13.48
2022-11-12T05:18:27.294Z,13.48
2022-11-12T05:19:33.096Z,13.48
2022-11-12T05:20:27.061Z,13.48
2022-11-12T05:21:27.167Z,13.54
2022-11-12T05:22:43.210Z,13.48
2022-11-12T05:23:27.332Z,13.48
2022-11-12T05:24:41.141Z,13.48
2022-11-12T05:25:27.669Z,13.54
2022-11-12T05:26:27.572Z,13.48
2022-11-12T05:27:27.670Z,13.54
2022-11-12T05:28:28.103Z,13.48
2022-11-12T05:29:27.853Z,13.54
2022-11-12T05:30:27.952Z,13.54
2022-11-12T05:31:28.085Z,13.54
2022-11-12T05:32:28.071Z,13.59
2022-11-12T05:33:28.142Z,13.48
2022-11-12T05:34:28.245Z,13.48
2022-11-12T05:35:28.329Z,13.64
2022-11-12T05:36:28.425Z,13.48
2022-11-12T05:37:28.599Z,13.48
2022-11-12T05:38:28.997Z,13.54
2022-11-12T05:39:28.671Z,13.48
2022-11-12T05:40:28.772Z,13.48
2022-11-12T05:41:44.988Z,13.48
2022-11-12T05:42:29.062Z,13.54
2022-11-12T05:43:29.040Z,13.48
2022-11-12T05:44:29.127Z,13.48
2022-11-12T05:45:29.209Z,13.59
2022-11-12T05:46:29.305Z,13.54
2022-11-12T05:47:29.377Z,13.54
2022-11-12T05:48:29.962Z,13.48
2022-11-12T05:49:29.545Z,13.54
2022-11-12T05:50:45.426Z,13.54
2022-11-12T05:51:29.740Z,13.48
2022-11-12T05:52:29.828Z,13.86
2022-11-12T05:53:29.923Z,13.48
2022-11-12T05:54:30.031Z,13.54
2022-11-12T05:55:34.461Z,13.54
2022-11-12T05:56:30.213Z,13.48
2022-11-12T05:57:30.263Z,13.48
2022-11-12T05:58:30.359Z,13.48
2022-11-12T05:59:30.463Z,13.48
2022-11-12T06:00:30.584Z,13.54
2022-11-12T06:01:30.642Z,13.54
2022-11-12T06:02:30.765Z,13.48
2022-11-12T06:03:30.816Z,13.54
2022-11-12T06:04:30.892Z,13.70
2022-11-12T06:05:30.993Z,13.54
2022-11-12T06:06:31.101Z,13.59
2022-11-12T06:07:31.160Z,13.54
2022-11-12T06:08:31.258Z,13.48
2022-11-12T06:09:31.356Z,13.48
2022-11-12T06:10:31.452Z,13.48
2022-11-12T06:11:31.575Z,13.54
2022-11-12T06:12:31.635Z,13.54
2022-11-12T06:13:31.726Z,13.54
2022-11-12T06:14:31.803Z,13.54
2022-11-12T06:15:36.479Z,13.54
2022-11-12T06:16:31.985Z,13.48
2022-11-12T06:17:32.139Z,13.70
2022-11-12T06:18:32.124Z,13.43
2022-11-12T06:19:32.257Z,13.48
2022-11-12T06:20:32.280Z,13.48
2022-11-12T06:21:38.337Z,13.48
2022-11-12T06:22:32.442Z,13.54
2022-11-12T06:23:32.549Z,13.48
2022-11-12T06:24:35.352Z,13.48
2022-11-12T06:25:32.708Z,13.54
2022-11-12T06:26:32.799Z,13.54
2022-11-12T06:27:32.879Z,13.48
2022-11-12T06:28:32.996Z,13.48
2022-11-12T06:29:33.069Z,13.48
2022-11-12T06:30:33.106Z,13.48
2022-11-12T06:31:33.194Z,13.48
2022-11-12T06:32:33.278Z,13.48
2022-11-12T06:33:33.364Z,13.48
2022-11-12T06:34:33.486Z,13.48
2022-11-12T06:35:33.557Z,13.48
2022-11-12T06:36:33.661Z,13.48
2022-11-12T06:37:33.745Z,13.54
2022-11-12T06:38:33.839Z,13.32
2022-11-12T06:39:33.938Z,13.48
2022-11-12T06:40:34.049Z,13.48
2022-11-12T06:41:34.107Z,13.48
2022-11-12T06:42:34.191Z,13.54
2022-11-12T06:43:34.290Z,13.48
2022-11-12T06:44:34.362Z,13.54
2022-11-12T06:45:34.469Z,13.48
2022-11-12T06:46:34.557Z,13.48
2022-11-12T06:47:34.647Z,13.54
2022-11-12T06:48:34.750Z,13.54
2022-11-12T06:49:34.877Z,13.54
2022-11-12T06:50:34.917Z,13.54
2022-11-12T06:51:35.037Z,13.48
2022-11-12T06:52:41.074Z,13.48
2022-11-12T06:53:35.165Z,13.54
2022-11-12T06:54:35.260Z,13.54
2022-11-12T06:55:35.343Z,13.54
2022-11-12T06:56:35.452Z,13.48
2022-11-12T06:57:35.617Z,13.43
2022-11-12T06:58:35.598Z,13.48
2022-11-12T06:59:35.692Z,13.54
2022-11-12T07:00:35.792Z,13.54
2022-11-12T07:01:35.897Z,13.48
2022-11-12T07:02:35.952Z,13.54
2022-11-12T07:03:36.152Z,13.48
2022-11-12T07:04:36.127Z,13.54
2022-11-12T07:05:36.194Z,13.48
2022-11-12T07:06:36.372Z,13.54
2022-11-12T07:07:36.549Z,13.48
2022-11-12T07:08:36.576Z,13.54
2022-11-12T07:09:36.539Z,13.54
2022-11-12T07:10:36.636Z,13.54
2022-11-12T07:11:36.737Z,13.48
2022-11-12T07:12:36.835Z,13.54
2022-11-12T07:13:36.933Z,13.54
2022-11-12T07:14:37.026Z,13.54
2022-11-12T07:15:37.081Z,13.54
2022-11-12T07:16:37.181Z,13.48
2022-11-12T07:17:37.255Z,13.54
2022-11-12T07:18:37.360Z,13.54
2022-11-12T07:19:37.437Z,13.48
2022-11-12T07:20:37.616Z,13.48
2022-11-12T07:21:37.600Z,13.32
2022-11-12T07:22:37.697Z,13.59
2022-11-12T07:23:43.768Z,13.37
2022-11-12T07:24:37.887Z,13.54
2022-11-12T07:25:37.995Z,13.48
2022-11-12T07:26:40.785Z,13.48
2022-11-12T07:27:38.181Z,13.64
2022-11-12T07:28:38.253Z,13.48
2022-11-12T07:29:47.696Z,13.54
2022-11-12T07:30:38.410Z,13.27
2022-11-12T07:31:38.514Z,13.54
2022-11-12T07:32:43.407Z,13.54
2022-11-12T07:33:38.642Z,13.48
2022-11-12T07:34:38.734Z,13.54
2022-11-12T07:35:38.817Z,13.48
2022-11-12T07:36:38.912Z,13.48
2022-11-12T07:37:38.998Z,13.32
2022-11-12T07:38:39.053Z,13.37
2022-11-12T07:39:39.116Z,13.48
2022-11-12T07:40:39.208Z,13.48
2022-11-12T07:41:39.317Z,13.54
2022-11-12T07:42:39.404Z,13.48
2022-11-12T07:43:39.556Z,13.37
2022-11-12T07:44:39.574Z,13.48
2022-11-12T07:45:39.650Z,13.54
2022-11-12T07:46:39.716Z,13.32
2022-11-12T07:47:39.824Z,13.54
2022-11-12T07:48:39.892Z,13.54
2022-11-12T07:49:40.069Z,13.54
2022-11-12T07:50:40.069Z,13.48
2022-11-12T07:51:40.168Z,13.48
2022-11-12T07:52:40.224Z,13.48
2022-11-12T07:53:40.286Z,13.59
2022-11-12T07:54:46.587Z,13.54
2022-11-12T07:55:40.480Z,13.75
2022-11-12T07:56:40.574Z,13.59
2022-11-12T07:57:40.630Z,13.48
2022-11-12T07:58:40.729Z,13.54
2022-11-12T07:59:45.934Z,13.59
2022-11-12T08:00:41.026Z,13.54
2022-11-12T08:01:41.109Z,13.54
2022-11-12T08:02:41.086Z,13.54
2022-11-12T08:03:41.184Z,13.48
2022-11-12T08:04:41.266Z,13.48
2022-11-12T08:05:41.343Z,13.54
2022-11-12T08:06:41.671Z,13.48
2022-11-12T08:07:41.699Z,13.48
2022-11-12T08:08:41.615Z,13.54
2022-11-12T08:09:41.689Z,13.43
2022-11-12T08:10:41.768Z,13.54
2022-11-12T08:11:41.859Z,13.32
2022-11-12T08:12:42.017Z,13.48
2022-11-12T08:13:41.998Z,13.32
2022-11-12T08:14:42.099Z,13.48
2022-11-12T08:15:42.195Z,13.37
2022-11-12T08:16:42.252Z,13.32
2022-11-12T08:17:42.371Z,13.27
2022-11-12T08:18:42.474Z,13.54
2022-11-12T08:19:42.521Z,13.32
2022-11-12T08:20:42.570Z,13.48
2022-11-12T08:21:42.650Z,13.37
2022-11-12T08:22:47.912Z,13.48
2022-11-12T08:23:42.840Z,13.54
2022-11-12T08:24:42.904Z,13.48
2022-11-12T08:25:48.937Z,13.59
2022-11-12T08:26:43.038Z,13.54
2022-11-12T08:27:43.132Z,13.48
2022-11-12T08:28:43.235Z,13.32
2022-11-12T08:29:43.329Z,13.54
2022-11-12T08:30:43.529Z,13.54
2022-11-12T08:31:43.533Z,13.54
2022-11-12T08:32:43.622Z,13.59
2022-11-12T08:33:43.708Z,13.32
2022-11-12T08:34:43.802Z,13.54
2022-11-12T08:35:43.906Z,13.48
2022-11-12T08:36:44.012Z,13.32
2022-11-12T08:37:44.098Z,13.54
2022-11-12T08:38:44.199Z,13.48
2022-11-12T08:39:44.287Z,13.59
2022-11-12T08:40:44.350Z,13.48
2022-11-12T08:41:44.432Z,13.32
2022-11-12T08:42:44.666Z,13.32
2022-11-12T08:43:44.583Z,13.54
2022-11-12T08:44:44.679Z,13.32
2022-11-12T08:45:44.747Z,13.32
2022-11-12T08:46:44.836Z,13.59
2022-11-12T08:47:44.919Z,13.54
2022-11-12T08:48:44.995Z,13.32
2022-11-12T08:49:47.962Z,13.59
2022-11-12T08:50:45.133Z,13.48
2022-11-12T08:51:45.212Z,13.54
2022-11-12T08:52:45.293Z,13.48
2022-11-12T08:53:45.399Z,13.32
2022-11-12T08:54:45.471Z,13.54
2022-11-12T08:55:45.534Z,13.54
2022-11-12T08:56:51.595Z,13.54
2022-11-12T08:57:45.699Z,13.32
2022-11-12T08:58:45.779Z,13.54
2022-11-12T08:59:45.858Z,13.48
2022-11-12T09:00:45.987Z,13.32
2022-11-12T09:01:46.104Z,13.54
2022-11-12T09:02:46.139Z,13.54
2022-11-12T09:03:46.197Z,13.48
2022-11-12T09:04:46.297Z,13.48
2022-11-12T09:05:46.363Z,13.32
2022-11-12T09:06:49.912Z,13.37
2022-11-12T09:07:50.848Z,13.59
2022-11-12T09:08:46.629Z,13.54
2022-11-12T09:09:46.739Z,13.59
2022-11-12T09:10:46.807Z,13.48
2022-11-12T09:11:46.882Z,13.32
2022-11-12T09:12:46.982Z,13.64
2022-11-12T09:13:47.070Z,13.54
2022-11-12T09:14:47.141Z,13.37
2022-11-12T09:15:47.237Z,13.32
2022-11-12T09:16:47.335Z,13.27
2022-11-12T09:17:47.437Z,13.27
2022-11-12T09:18:47.504Z,13.48
2022-11-12T09:19:47.592Z,13.32
2022-11-12T09:20:47.691Z,13.27
2022-11-12T09:21:47.778Z,13.32
2022-11-12T09:22:47.882Z,13.32
2022-11-12T09:23:47.977Z,13.32
2022-11-12T09:24:48.169Z,13.32
2022-11-12T09:25:48.138Z,13.32
2022-11-12T09:26:48.231Z,13.54
2022-11-12T09:27:54.306Z,13.37
2022-11-12T09:28:48.414Z,13.54
2022-11-12T09:29:48.488Z,13.43
2022-11-12T09:30:48.558Z,13.32
2022-11-12T09:31:48.668Z,13.54
2022-11-12T09:32:48.733Z,13.54
2022-11-12T09:33:48.826Z,13.54
2022-11-12T09:34:48.883Z,13.32
2022-11-12T09:35:48.978Z,13.54
2022-11-12T09:36:49.042Z,13.54
2022-11-12T09:37:49.117Z,13.32
2022-11-12T09:38:49.199Z,13.21
2022-11-12T09:39:49.294Z,13.32
2022-11-12T09:40:49.399Z,13.43
2022-11-12T09:41:49.497Z,13.32
2022-11-12T09:42:49.536Z,13.32
2022-11-12T09:43:49.634Z,13.32
2022-11-12T09:44:49.715Z,13.48
2022-11-12T09:46:00.300Z,13.37
2022-11-12T09:46:49.899Z,13.32
2022-11-12T09:47:50.004Z,13.32
2022-11-12T09:48:50.065Z,13.32
2022-11-12T09:49:50.123Z,13.32
2022-11-12T09:50:50.209Z,13.32
2022-11-12T09:51:50.310Z,13.54
2022-11-12T09:52:50.379Z,13.32
2022-11-12T09:53:50.595Z,13.32
2022-11-12T09:54:50.550Z,13.54
2022-11-12T09:55:50.641Z,13.32
2022-11-12T09:56:50.730Z,13.54
2022-11-12T09:57:50.809Z,13.32
2022-11-12T09:58:57.150Z,13.27
2022-11-12T09:59:50.955Z,13.32
2022-11-12T10:00:51.054Z,13.32
2022-11-12T10:01:51.116Z,13.37
2022-11-12T10:02:51.175Z,13.54
2022-11-12T10:03:51.282Z,13.37
2022-11-12T10:04:51.468Z,13.32
2022-11-12T10:05:51.450Z,13.48
2022-11-12T10:06:51.580Z,13.32
2022-11-12T10:07:51.607Z,13.32
2022-11-12T10:08:51.692Z,13.27
2022-11-12T10:09:51.775Z,13.32
2022-11-12T10:10:52.036Z,13.32
2022-11-12T10:11:51.975Z,13.43
2022-11-12T10:12:52.050Z,13.32
2022-11-12T10:13:52.075Z,13.27
2022-11-12T10:14:52.169Z,13.37
2022-11-12T10:15:52.271Z,13.32
2022-11-12T10:16:52.427Z,13.32
2022-11-12T10:17:52.412Z,13.32
2022-11-12T10:18:52.526Z,13.32
2022-11-12T10:19:52.565Z,13.27
2022-11-12T10:20:52.638Z,13.27
2022-11-12T10:21:52.710Z,13.37
2022-11-12T10:22:52.784Z,13.27
2022-11-12T10:23:52.835Z,13.48
2022-11-12T10:24:52.899Z,13.32
2022-11-12T10:25:52.956Z,13.32
2022-11-12T10:26:53.037Z,13.27
2022-11-12T10:27:53.229Z,13.32
2022-11-12T10:28:53.193Z,13.32
2022-11-12T10:29:59.277Z,13.27
2022-11-12T10:30:53.384Z,13.27
2022-11-12T10:31:53.446Z,13.37
2022-11-12T10:32:53.598Z,13.32
2022-11-12T10:33:53.576Z,13.27
2022-11-12T10:34:53.627Z,13.37
2022-11-12T10:35:53.702Z,13.32
2022-11-12T10:36:55.413Z,13.54
2022-11-12T10:37:53.868Z,13.37
2022-11-12T10:38:53.981Z,13.32
2022-11-12T10:39:54.037Z,13.32
2022-11-12T10:40:54.134Z,13.32
2022-11-12T10:41:54.192Z,13.32
2022-11-12T10:42:54.275Z,13.32
2022-11-12T10:43:54.375Z,13.32
2022-11-12T10:44:54.497Z,13.27
2022-11-12T10:45:54.510Z,13.27
2022-11-12T10:46:54.596Z,13.27
2022-11-12T10:47:54.695Z,13.27
2022-11-12T10:48:54.740Z,13.32
2022-11-12T10:49:54.828Z,13.32
2022-11-12T10:50:55.022Z,13.27
2022-11-12T10:51:55.006Z,13.32
2022-11-12T10:52:55.106Z,13.32
2022-11-12T10:53:55.183Z,13.32
2022-11-12T10:54:55.371Z,13.32
2022-11-12T10:55:55.368Z,13.32
2022-11-12T10:56:55.947Z,13.32
2022-11-12T10:57:55.487Z,13.32
2022-11-12T10:58:55.601Z,13.32
2022-11-12T10:59:55.654Z,13.32
2022-11-12T11:01:01.727Z,13.27
2022-11-12T11:01:55.952Z,13.32
2022-11-12T11:02:55.903Z,13.37
2022-11-12T11:03:56.005Z,13.32
2022-11-12T11:04:56.102Z,13.37
2022-11-12T11:05:56.174Z,13.32
2022-11-12T11:06:56.290Z,13.32
2022-11-12T11:07:56.329Z,13.32
2022-11-12T11:08:56.389Z,13.27
2022-11-12T11:09:56.489Z,13.32
2022-11-12T11:10:56.597Z,13.32
2022-11-12T11:11:56.677Z,13.32
2022-11-12T11:12:56.888Z,13.27
2022-11-12T11:13:56.833Z,13.32
2022-11-12T11:14:57.663Z,13.43
2022-11-12T11:15:56.996Z,13.32
2022-11-12T11:16:57.083Z,13.27
2022-11-12T11:17:57.175Z,13.32
2022-11-12T11:18:57.330Z,13.32
2022-11-12T11:19:57.306Z,13.32
2022-11-12T11:20:57.387Z,13.27
2022-11-12T11:21:57.459Z,13.27
2022-11-12T11:22:57.544Z,13.32
2022-11-12T11:23:57.737Z,13.32
2022-11-12T11:24:57.702Z,13.32
2022-11-12T11:25:57.779Z,13.37
2022-11-12T11:26:57.873Z,13.32
2022-11-12T11:27:57.980Z,13.32
2022-11-12T11:28:58.076Z,13.27
2022-11-12T11:29:58.293Z,13.16
2022-11-12T11:30:58.244Z,13.27
2022-11-12T11:32:04.298Z,13.32
2022-11-12T11:32:58.434Z,13.27
2022-11-12T11:33:58.554Z,13.37
2022-11-12T11:34:58.730Z,13.37
2022-11-12T11:35:58.685Z,13.32
2022-11-12T11:36:58.746Z,13.27
2022-11-12T11:37:58.849Z,13.32
2022-11-12T11:38:58.922Z,13.11
2022-11-12T11:39:59.015Z,13.27
2022-11-12T11:40:59.287Z,13.16
2022-11-12T11:41:59.209Z,13.11
2022-11-12T11:42:59.255Z,13.32
2022-11-12T11:43:59.364Z,13.16
2022-11-12T11:44:59.413Z,13.32
2022-11-12T11:45:59.578Z,13.32
2022-11-12T11:46:59.560Z,13.32
2022-11-12T11:48:02.250Z,13.27
2022-11-12T11:48:59.700Z,13.37
2022-11-12T11:49:59.764Z,13.11
2022-11-12T11:50:59.863Z,13.37
2022-11-12T11:52:00.069Z,13.32
2022-11-12T11:53:00.038Z,13.37
2022-11-12T11:54:00.116Z,13.32
2022-11-12T11:55:00.196Z,13.11
2022-11-12T11:56:00.292Z,13.27
2022-11-12T11:57:00.361Z,13.16
2022-11-12T11:58:00.576Z,13.11
2022-11-12T11:59:00.527Z,13.16
2022-11-12T12:00:01.587Z,13.32
2022-11-12T12:01:00.693Z,13.32
2022-11-12T12:02:00.791Z,13.05
2022-11-12T12:03:07.268Z,13.32
2022-11-12T12:04:00.985Z,13.32
2022-11-12T12:05:01.014Z,13.32
2022-11-12T12:06:01.108Z,13.11
2022-11-12T12:07:01.269Z,13.16
2022-11-12T12:08:01.297Z,13.11
2022-11-12T12:09:01.457Z,13.16
2022-11-12T12:10:06.192Z,13.32
2022-11-12T12:11:08.049Z,13.11
2022-11-12T12:12:01.613Z,13.21
2022-11-12T12:13:01.709Z,13.16
2022-11-12T12:14:01.817Z,13.32
2022-11-12T12:15:01.897Z,13.16
2022-11-12T12:16:01.967Z,13.32
2022-11-12T12:17:02.017Z,13.11
2022-11-12T12:18:02.086Z,13.11
2022-11-12T12:19:02.177Z,13.32
2022-11-12T12:20:02.285Z,13.11
2022-11-12T12:21:02.460Z,13.27
2022-11-12T12:22:02.393Z,13.11
2022-11-12T12:23:02.490Z,13.21
2022-11-12T12:24:02.589Z,13.32
2022-11-12T12:25:02.670Z,13.48
2022-11-12T12:26:02.772Z,13.11
2022-11-12T12:27:02.830Z,13.16
2022-11-12T12:28:02.896Z,13.16
2022-11-12T12:29:02.995Z,13.37
2022-11-12T12:30:03.099Z,13.32
2022-11-12T12:31:03.155Z,13.32
2022-11-12T12:32:03.265Z,13.32
2022-11-12T12:33:03.306Z,13.16
2022-11-12T12:34:09.444Z,13.11
2022-11-12T12:35:03.529Z,13.11
2022-11-12T12:36:03.597Z,13.11
2022-11-12T12:37:03.673Z,13.11
2022-11-12T12:38:03.756Z,13.11
2022-11-12T12:39:03.821Z,13.11
2022-11-12T12:40:03.872Z,13.32
2022-11-12T12:41:03.971Z,13.11
2022-11-12T12:42:04.069Z,13.11
2022-11-12T12:43:04.170Z,13.11
2022-11-12T12:44:04.230Z,13.16
2022-11-12T12:45:04.333Z,13.11
2022-11-12T12:46:04.413Z,13.43
2022-11-12T12:47:04.504Z,13.16
2022-11-12T12:48:04.709Z,13.11
2022-11-12T12:49:04.677Z,13.11
2022-11-12T12:50:04.810Z,13.11
2022-11-12T12:51:04.836Z,13.05
2022-11-12T12:52:04.929Z,13.11
2022-11-12T12:53:05.035Z,13.11